sensor_id;sensor_type;location;lat;lon;timestamp;pressure;altitude;pressure_sealevel;temperature;humidity
4085;BME280;2057;50.858;6.572;2023-07-20T00:01:22;100197.97;;;17.29;100.00
4085;BME280;2057;50.858;6.572;2023-07-20T00:03:47;100193.91;;;17.42;100.00
4085;BME280;2057;50.858;6.572;2023-07-20T00:06:20;100197.34;;;17.43;100.00
4085;BME280;2057;50.858;6.572;2023-07-20T00:08:46;100199.69;;;17.29;100.00
4085;BME280;2057;50.858;6.572;2023-07-20T00:11:11;100201.25;;;17.20;100.00
4085;BME280;2057;50.858;6.572;2023-07-20T00:13:38;100196.84;;;17.13;100.00
4085;BME280;2057;50.858;6.572;2023-07-20T00:16:04;100191.94;;;17.27;100.00
4085;BME280;2057;50.858;6.572;2023-07-20T00:18:29;100195.41;;;17.29;100.00
4085;BME280;2057;50.858;6.572;2023-07-20T00:20:55;100200.09;;;17.53;100.00
4085;BME280;2057;50.858;6.572;2023-07-20T00:23:20;100189.44;;;17.30;100.00
4085;BME280;2057;50.858;6.572;2023-07-20T00:25:48;100196.25;;;17.28;100.00
4085;BME280;2057;50.858;6.572;2023-07-20T00:28:15;100194.34;;;17.16;100.00
4085;BME280;2057;50.858;6.572;2023-07-20T00:30:40;100196.09;;;17.19;100.00
4085;BME280;2057;50.858;6.572;2023-07-20T00:33:12;100193.53;;;17.19;100.00
4085;BME280;2057;50.858;6.572;2023-07-20T00:35:38;100197.00;;;17.22;100.00
4085;BME280;2057;50.858;6.572;2023-07-20T00:38:04;100194.41;;;17.19;100.00
4085;BME280;2057;50.858;6.572;2023-07-20T00:40:39;100184.06;;;17.15;100.00
4085;BME280;2057;50.858;6.572;2023-07-20T00:43:08;100185.88;;;17.20;100.00
4085;BME280;2057;50.858;6.572;2023-07-20T00:45:34;100184.72;;;17.04;100.00
4085;BME280;2057;50.858;6.572;2023-07-20T00:48:01;100185.09;;;16.78;100.00
4085;BME280;2057;50.858;6.572;2023-07-20T00:50:28;100187.63;;;16.77;100.00
4085;BME280;2057;50.858;6.572;2023-07-20T00:52:54;100186.81;;;16.80;100.00
4085;BME280;2057;50.858;6.572;2023-07-20T00:55:20;100178.88;;;16.67;100.00
4085;BME280;2057;50.858;6.572;2023-07-20T00:57:46;100186.34;;;16.55;100.00
4085;BME280;2057;50.858;6.572;2023-07-20T01:00:12;100186.19;;;16.45;100.00
4085;BME280;2057;50.858;6.572;2023-07-20T01:02:37;100187.75;;;16.40;100.00
4085;BME280;2057;50.858;6.572;2023-07-20T01:05:06;100182.78;;;16.46;100.00
4085;BME280;2057;50.858;6.572;2023-07-20T01:07:36;100187.75;;;16.39;100.00
4085;BME280;2057;50.858;6.572;2023-07-20T01:12:42;100199.50;;;16.29;100.00
4085;BME280;2057;50.858;6.572;2023-07-20T01:15:08;100187.75;;;16.39;100.00
4085;BME280;2057;50.858;6.572;2023-07-20T01:17:34;100191.97;;;16.37;100.00
4085;BME280;2057;50.858;6.572;2023-07-20T01:20:00;100191.97;;;16.37;100.00
4085;BME280;2057;50.858;6.572;2023-07-20T01:32:54;100191.25;;;16.03;100.00
4085;BME280;2057;50.858;6.572;2023-07-20T01:35:20;100188.50;;;15.93;100.00
4085;BME280;2057;50.858;6.572;2023-07-20T01:37:49;100184.97;;;15.88;100.00
4085;BME280;2057;50.858;6.572;2023-07-20T01:40:17;100192.69;;;15.90;100.00
4085;BME280;2057;50.858;6.572;2023-07-20T01:42:46;100187.22;;;15.76;100.00
4085;BME280;2057;50.858;6.572;2023-07-20T01:45:12;100182.16;;;15.79;100.00
4085;BME280;2057;50.858;6.572;2023-07-20T01:47:37;100183.75;;;15.74;100.00
4085;BME280;2057;50.858;6.572;2023-07-20T01:50:02;100182.91;;;15.75;100.00
4085;BME280;2057;50.858;6.572;2023-07-20T01:52:28;100182.75;;;15.67;100.00
4085;BME280;2057;50.858;6.572;2023-07-20T01:54:53;100181.09;;;15.69;100.00
4085;BME280;2057;50.858;6.572;2023-07-20T01:57:18;100177.22;;;15.85;100.00
4085;BME280;2057;50.858;6.572;2023-07-20T01:59:44;100184.16;;;15.89;100.00
4085;BME280;2057;50.858;6.572;2023-07-20T02:02:09;100184.19;;;15.92;100.00
4085;BME280;2057;50.858;6.572;2023-07-20T02:04:34;100183.31;;;15.90;100.00
4085;BME280;2057;50.858;6.572;2023-07-20T02:07:01;100175.56;;;15.87;100.00
4085;BME280;2057;50.858;6.572;2023-07-20T02:09:26;100173.94;;;15.91;100.00
4085;BME280;2057;50.858;6.572;2023-07-20T02:11:51;100170.34;;;15.84;100.00
4085;BME280;2057;50.858;6.572;2023-07-20T02:14:16;100173.91;;;15.89;100.00
4085;BME280;2057;50.858;6.572;2023-07-20T02:16:42;100170.53;;;15.92;100.00
4085;BME280;2057;50.858;6.572;2023-07-20T02:19:07;100175.56;;;15.87;100.00
4085;BME280;2057;50.858;6.572;2023-07-20T02:21:33;100168.59;;;15.83;100.00
4085;BME280;2057;50.858;6.572;2023-07-20T02:23:58;100172.72;;;15.76;100.00
4085;BME280;2057;50.858;6.572;2023-07-20T02:26:24;100177.22;;;15.85;100.00
4085;BME280;2057;50.858;6.572;2023-07-20T02:28:49;100174.75;;;15.90;100.00
4085;BME280;2057;50.858;6.572;2023-07-20T02:31:14;100176.59;;;15.95;100.00
4085;BME280;2057;50.858;6.572;2023-07-20T02:33:40;100177.31;;;15.90;100.00
4085;BME280;2057;50.858;6.572;2023-07-20T02:36:05;100172.31;;;15.96;100.00
4085;BME280;2057;50.858;6.572;2023-07-20T02:38:30;100167.97;;;15.92;100.00
4085;BME280;2057;50.858;6.572;2023-07-20T02:40:55;100166.47;;;16.02;100.00
4085;BME280;2057;50.858;6.572;2023-07-20T02:43:21;100175.84;;;15.99;100.00
4085;BME280;2057;50.858;6.572;2023-07-20T02:45:46;100178.63;;;16.10;100.00
4085;BME280;2057;50.858;6.572;2023-07-20T02:48:12;100177.19;;;16.23;100.00
4085;BME280;2057;50.858;6.572;2023-07-20T02:50:37;100179.59;;;16.17;100.00
4085;BME280;2057;50.858;6.572;2023-07-20T02:53:03;100171.88;;;16.15;100.00
4085;BME280;2057;50.858;6.572;2023-07-20T02:55:28;100178.81;;;16.20;100.00
4085;BME280;2057;50.858;6.572;2023-07-20T02:57:53;100181.31;;;16.18;100.00
4085;BME280;2057;50.858;6.572;2023-07-20T03:00:19;100187.00;;;16.03;100.00
4085;BME280;2057;50.858;6.572;2023-07-20T03:02:46;100189.72;;;16.11;100.00
4085;BME280;2057;50.858;6.572;2023-07-20T03:05:21;100187.25;;;16.14;100.00
4085;BME280;2057;50.858;6.572;2023-07-20T03:07:46;100185.53;;;16.14;100.00
4085;BME280;2057;50.858;6.572;2023-07-20T03:10:12;100189.69;;;16.08;100.00
4085;BME280;2057;50.858;6.572;2023-07-20T03:12:38;100184.50;;;16.06;100.00
4085;BME280;2057;50.858;6.572;2023-07-20T03:15:03;100183.97;;;16.21;100.00
4085;BME280;2057;50.858;6.572;2023-07-20T03:17:29;100182.75;;;16.04;100.00
4085;BME280;2057;50.858;6.572;2023-07-20T03:19:57;100181.69;;;15.94;100.00
4085;BME280;2057;50.858;6.572;2023-07-20T03:22:22;100186.13;;;16.03;100.00
4085;BME280;2057;50.858;6.572;2023-07-20T03:24:49;100191.47;;;16.13;100.00
4085;BME280;2057;50.858;6.572;2023-07-20T03:27:14;100190.66;;;16.14;100.00
4085;BME280;2057;50.858;6.572;2023-07-20T03:29:40;100187.25;;;16.14;100.00
4085;BME280;2057;50.858;6.572;2023-07-20T03:32:05;100190.63;;;16.13;100.00
4085;BME280;2057;50.858;6.572;2023-07-20T03:34:31;100180.19;;;16.05;100.00
4085;BME280;2057;50.858;6.572;2023-07-20T03:36:56;100181.22;;;16.12;100.00
4085;BME280;2057;50.858;6.572;2023-07-20T03:39:22;100189.63;;;16.06;100.00
4085;BME280;2057;50.858;6.572;2023-07-20T03:41:47;100190.41;;;16.02;100.00
4085;BME280;2057;50.858;6.572;2023-07-20T03:44:15;100189.25;;;15.89;100.00
4085;BME280;2057;50.858;6.572;2023-07-20T03:46:41;100190.00;;;15.83;100.00
4085;BME280;2057;50.858;6.572;2023-07-20T03:49:07;100193.16;;;15.75;100.00
4085;BME280;2057;50.858;6.572;2023-07-20T03:51:34;100190.44;;;15.67;100.00
4085;BME280;2057;50.858;6.572;2023-07-20T03:53:59;100193.13;;;15.73;100.00
4085;BME280;2057;50.858;6.572;2023-07-20T03:56:25;100195.88;;;15.81;100.00
4085;BME280;2057;50.858;6.572;2023-07-20T03:58:50;100192.69;;;15.90;100.00
4085;BME280;2057;50.858;6.572;2023-07-20T04:01:16;100197.19;;;16.00;100.00
4085;BME280;2057;50.858;6.572;2023-07-20T04:03:44;100202.13;;;15.92;100.00
4085;BME280;2057;50.858;6.572;2023-07-20T04:06:10;100203.09;;;15.97;100.00
4085;BME280;2057;50.858;6.572;2023-07-20T04:08:36;100210.22;;;16.11;100.00
4085;BME280;2057;50.858;6.572;2023-07-20T04:11:02;100214.59;;;16.15;100.00
4085;BME280;2057;50.858;6.572;2023-07-20T04:13:27;100218.03;;;16.17;100.00
4085;BME280;2057;50.858;6.572;2023-07-20T04:15:53;100217.00;;;16.09;100.00
4085;BME280;2057;50.858;6.572;2023-07-20T04:18:18;100216.13;;;16.07;100.00
4085;BME280;2057;50.858;6.572;2023-07-20T04:20:44;100218.59;;;16.04;100.00
4085;BME280;2057;50.858;6.572;2023-07-20T04:23:09;100217.28;;;16.21;100.00
4085;BME280;2057;50.858;6.572;2023-07-20T04:25:34;100220.84;;;16.29;100.00
4085;BME280;2057;50.858;6.572;2023-07-20T04:28:04;100222.56;;;16.29;100.00
4085;BME280;2057;50.858;6.572;2023-07-20T04:30:30;100230.91;;;16.20;100.00
4085;BME280;2057;50.858;6.572;2023-07-20T04:32:57;100221.19;;;16.05;100.00
4085;BME280;2057;50.858;6.572;2023-07-20T04:38:16;100228.47;;;15.87;100.00
4085;BME280;2057;50.858;6.572;2023-07-20T04:40:44;100221.50;;;15.82;100.00
4085;BME280;2057;50.858;6.572;2023-07-20T04:43:09;100226.44;;;15.75;100.00
4085;BME280;2057;50.858;6.572;2023-07-20T04:45:35;100217.22;;;15.81;100.00
4085;BME280;2057;50.858;6.572;2023-07-20T04:48:00;100227.47;;;15.83;100.00
4085;BME280;2057;50.858;6.572;2023-07-20T04:50:25;100224.03;;;15.81;100.00
4085;BME280;2057;50.858;6.572;2023-07-20T04:52:51;100229.81;;;15.74;100.00
4085;BME280;2057;50.858;6.572;2023-07-20T04:55:18;100228.41;;;15.85;100.00
4085;BME280;2057;50.858;6.572;2023-07-20T04:57:43;100221.47;;;15.81;100.00
4085;BME280;2057;50.858;6.572;2023-07-20T05:00:09;100222.31;;;15.81;100.00
4085;BME280;2057;50.858;6.572;2023-07-20T05:02:36;100218.09;;;15.82;100.00
4085;BME280;2057;50.858;6.572;2023-07-20T05:05:03;100226.53;;;15.79;100.00
4085;BME280;2057;50.858;6.572;2023-07-20T05:07:31;100223.97;;;15.79;100.00
4085;BME280;2057;50.858;6.572;2023-07-20T05:09:56;100231.53;;;15.75;100.00
4085;BME280;2057;50.858;6.572;2023-07-20T05:12:21;100229.91;;;15.77;100.00
4085;BME280;2057;50.858;6.572;2023-07-20T05:14:47;100227.25;;;15.74;100.00
4085;BME280;2057;50.858;6.572;2023-07-20T05:17:12;100230.56;;;15.68;100.00
4085;BME280;2057;50.858;6.572;2023-07-20T05:19:37;100235.72;;;15.71;100.00
4085;BME280;2057;50.858;6.572;2023-07-20T05:22:03;100231.53;;;15.75;100.00
4085;BME280;2057;50.858;6.572;2023-07-20T05:24:30;100233.44;;;15.82;100.00
4085;BME280;2057;50.858;6.572;2023-07-20T05:26:55;100231.81;;;15.84;100.00
4085;BME280;2057;50.858;6.572;2023-07-20T05:29:21;100234.53;;;15.90;100.00
4085;BME280;2057;50.858;6.572;2023-07-20T05:31:46;100235.63;;;16.02;100.00
4085;BME280;2057;50.858;6.572;2023-07-20T05:34:14;100237.22;;;15.96;100.00
4085;BME280;2057;50.858;6.572;2023-07-20T05:36:39;100236.31;;;15.94;100.00
4085;BME280;2057;50.858;6.572;2023-07-20T05:39:05;100233.81;;;15.97;100.00
4085;BME280;2057;50.858;6.572;2023-07-20T05:41:30;100235.66;;;16.03;100.00
4085;BME280;2057;50.858;6.572;2023-07-20T05:43:55;100224.78;;;16.13;100.00
4085;BME280;2057;50.858;6.572;2023-07-20T05:46:21;100228.13;;;16.09;100.00
4085;BME280;2057;50.858;6.572;2023-07-20T05:48:46;100232.13;;;15.98;100.00
4085;BME280;2057;50.858;6.572;2023-07-20T05:51:12;100234.28;;;16.18;100.00
4085;BME280;2057;50.858;6.572;2023-07-20T05:53:37;100237.53;;;16.10;100.00
4085;BME280;2057;50.858;6.572;2023-07-20T05:56:03;100238.56;;;16.19;100.00
4085;BME280;2057;50.858;6.572;2023-07-20T05:58:29;100233.25;;;16.11;100.00
4085;BME280;2057;50.858;6.572;2023-07-20T06:00:57;100236.22;;;16.29;100.00
4085;BME280;2057;50.858;6.572;2023-07-20T06:03:23;100242.47;;;16.42;100.00
4085;BME280;2057;50.858;6.572;2023-07-20T06:05:48;100243.53;;;16.52;100.00
4085;BME280;2057;50.858;6.572;2023-07-20T06:08:13;100252.47;;;16.71;100.00
4085;BME280;2057;50.858;6.572;2023-07-20T06:10:39;100259.44;;;16.77;100.00
4085;BME280;2057;50.858;6.572;2023-07-20T06:13:04;100264.75;;;16.86;100.00
4085;BME280;2057;50.858;6.572;2023-07-20T06:15:33;100265.91;;;16.59;100.00
4085;BME280;2057;50.858;6.572;2023-07-20T06:18:00;100260.81;;;16.62;100.00
4085;BME280;2057;50.858;6.572;2023-07-20T06:20:26;100262.47;;;16.60;100.00
4085;BME280;2057;50.858;6.572;2023-07-20T06:22:52;100262.75;;;16.74;100.00
4085;BME280;2057;50.858;6.572;2023-07-20T06:25:17;100261.72;;;16.65;100.00
4085;BME280;2057;50.858;6.572;2023-07-20T06:27:43;100263.44;;;16.64;100.00
4085;BME280;2057;50.858;6.572;2023-07-20T06:30:09;100263.34;;;16.59;100.00
4085;BME280;2057;50.858;6.572;2023-07-20T06:32:35;100260.59;;;16.52;100.00
4085;BME280;2057;50.858;6.572;2023-07-20T06:35:01;100262.03;;;16.80;100.00
4085;BME280;2057;50.858;6.572;2023-07-20T06:37:26;100259.47;;;16.80;100.00
4085;BME280;2057;50.858;6.572;2023-07-20T06:39:51;100264.28;;;16.63;100.00
4085;BME280;2057;50.858;6.572;2023-07-20T06:42:17;100267.94;;;16.76;100.00
4085;BME280;2057;50.858;6.572;2023-07-20T06:44:42;100263.78;;;16.83;100.00
4085;BME280;2057;50.858;6.572;2023-07-20T06:47:08;100266.28;;;17.22;100.00
4085;BME280;2057;50.858;6.572;2023-07-20T06:49:33;100266.31;;;17.24;100.00
4085;BME280;2057;50.858;6.572;2023-07-20T06:52:01;100270.47;;;17.17;100.00
4085;BME280;2057;50.858;6.572;2023-07-20T06:54:26;100267.25;;;17.28;100.00
4085;BME280;2057;50.858;6.572;2023-07-20T06:56:51;100275.03;;;17.32;100.00
4085;BME280;2057;50.858;6.572;2023-07-20T06:59:17;100277.78;;;17.45;100.00
4085;BME280;2057;50.858;6.572;2023-07-20T07:01:42;100276.44;;;17.18;99.47
4085;BME280;2057;50.858;6.572;2023-07-20T07:04:10;100285.13;;;17.24;100.00
4085;BME280;2057;50.858;6.572;2023-07-20T07:06:36;100285.06;;;17.20;98.24
4085;BME280;2057;50.858;6.572;2023-07-20T07:09:02;100276.66;;;17.29;98.39
4085;BME280;2057;50.858;6.572;2023-07-20T07:11:28;100283.72;;;17.42;98.28
4085;BME280;2057;50.858;6.572;2023-07-20T07:13:54;100290.75;;;17.51;98.35
4085;BME280;2057;50.858;6.572;2023-07-20T07:16:19;100279.06;;;17.70;97.22
4085;BME280;2057;50.858;6.572;2023-07-20T07:18:45;100276.69;;;17.82;95.92
4085;BME280;2057;50.858;6.572;2023-07-20T07:21:11;100282.63;;;17.77;94.95
4085;BME280;2057;50.858;6.572;2023-07-20T07:23:38;100287.16;;;17.93;94.56
4085;BME280;2057;50.858;6.572;2023-07-20T07:26:03;100284.50;;;17.88;94.84
4085;BME280;2057;50.858;6.572;2023-07-20T07:28:29;100285.44;;;17.94;95.34
4085;BME280;2057;50.858;6.572;2023-07-20T07:30:55;100278.34;;;17.79;94.55
4085;BME280;2057;50.858;6.572;2023-07-20T07:33:22;100284.81;;;17.56;95.81
4085;BME280;2057;50.858;6.572;2023-07-20T07:35:51;100274.94;;;17.78;95.63
4085;BME280;2057;50.858;6.572;2023-07-20T07:38:17;100280.31;;;17.95;94.27
4085;BME280;2057;50.858;6.572;2023-07-20T07:40:43;100281.03;;;17.85;92.57
4085;BME280;2057;50.858;6.572;2023-07-20T07:43:08;100285.44;;;17.94;92.30
4085;BME280;2057;50.858;6.572;2023-07-20T07:45:35;100288.69;;;17.83;92.32
4085;BME280;2057;50.858;6.572;2023-07-20T07:48:04;100289.06;;;18.05;91.32
4085;BME280;2057;50.858;6.572;2023-07-20T07:50:30;100290.34;;;18.33;90.97
4085;BME280;2057;50.858;6.572;2023-07-20T07:52:55;100284.41;;;18.39;90.30
4085;BME280;2057;50.858;6.572;2023-07-20T07:55:23;100292.50;;;18.67;88.23
4085;BME280;2057;50.858;6.572;2023-07-20T07:57:49;100294.91;;;18.55;88.18
4085;BME280;2057;50.858;6.572;2023-07-20T08:00:15;100298.28;;;18.50;88.47
4085;BME280;2057;50.858;6.572;2023-07-20T08:02:44;100303.38;;;18.47;87.34
4085;BME280;2057;50.858;6.572;2023-07-20T08:05:09;100298.75;;;18.23;87.27
4085;BME280;2057;50.858;6.572;2023-07-20T08:07:36;100301.56;;;18.40;86.25
4085;BME280;2057;50.858;6.572;2023-07-20T08:10:02;100295.81;;;18.60;84.08
4085;BME280;2057;50.858;6.572;2023-07-20T08:12:28;100300.41;;;18.83;82.65
4085;BME280;2057;50.858;6.572;2023-07-20T08:14:53;100297.38;;;19.18;80.13
4085;BME280;2057;50.858;6.572;2023-07-20T08:17:19;100300.06;;;19.28;82.08
4085;BME280;2057;50.858;6.572;2023-07-20T08:19:46;100302.63;;;19.28;78.19
4085;BME280;2057;50.858;6.572;2023-07-20T08:22:11;100300.06;;;19.28;79.27
4085;BME280;2057;50.858;6.572;2023-07-20T08:24:41;100307.53;;;19.04;80.74
4085;BME280;2057;50.858;6.572;2023-07-20T08:27:07;100312.31;;;18.76;81.72
4085;BME280;2057;50.858;6.572;2023-07-20T08:29:34;100307.16;;;18.74;82.14
4085;BME280;2057;50.858;6.572;2023-07-20T08:31:59;100306.91;;;18.57;83.07
4085;BME280;2057;50.858;6.572;2023-07-20T08:34:27;100308.78;;;18.69;83.02
4085;BME280;2057;50.858;6.572;2023-07-20T08:36:52;100304.66;;;18.82;80.96
4085;BME280;2057;50.858;6.572;2023-07-20T08:39:18;100312.09;;;19.31;77.89
4085;BME280;2057;50.858;6.572;2023-07-20T08:41:43;100316.25;;;19.17;78.55
4085;BME280;2057;50.858;6.572;2023-07-20T08:44:10;100310.16;;;19.08;78.43
4085;BME280;2057;50.858;6.572;2023-07-20T08:46:38;100304.91;;;19.01;78.34
4085;BME280;2057;50.858;6.572;2023-07-20T08:49:04;100298.97;;;19.05;77.65
4085;BME280;2057;50.858;6.572;2023-07-20T08:51:30;100300.06;;;19.30;77.19
4085;BME280;2057;50.858;6.572;2023-07-20T08:53:56;100301.13;;;19.51;78.55
4085;BME280;2057;50.858;6.572;2023-07-20T08:56:23;100290.72;;;19.38;78.08
4085;BME280;2057;50.858;6.572;2023-07-20T08:58:52;100297.53;;;19.32;79.08
4085;BME280;2057;50.858;6.572;2023-07-20T09:01:19;100301.13;;;19.51;78.69
4085;BME280;2057;50.858;6.572;2023-07-20T09:03:45;100307.03;;;19.40;77.58
4085;BME280;2057;50.858;6.572;2023-07-20T09:06:12;100309.41;;;19.19;78.07
4085;BME280;2057;50.858;6.572;2023-07-20T09:08:40;100303.63;;;19.41;75.84
4085;BME280;2057;50.858;6.572;2023-07-20T09:11:07;100303.75;;;19.57;76.17
4085;BME280;2057;50.858;6.572;2023-07-20T09:13:33;100294.53;;;19.81;75.08
4085;BME280;2057;50.858;6.572;2023-07-20T09:15:59;100294.06;;;20.37;72.64
4085;BME280;2057;50.858;6.572;2023-07-20T09:18:28;100288.13;;;20.48;70.79
4085;BME280;2057;50.858;6.572;2023-07-20T09:21:05;100294.16;;;20.55;65.04
4085;BME280;2057;50.858;6.572;2023-07-20T09:23:34;100293.25;;;20.43;65.28
4085;BME280;2057;50.858;6.572;2023-07-20T09:26:01;100295.75;;;20.31;69.72
4085;BME280;2057;50.858;6.572;2023-07-20T09:28:26;100291.44;;;20.28;69.39
4085;BME280;2057;50.858;6.572;2023-07-20T09:30:54;100294.03;;;20.34;70.89
4085;BME280;2057;50.858;6.572;2023-07-20T09:33:22;100291.41;;;20.22;69.57
4085;BME280;2057;50.858;6.572;2023-07-20T09:35:48;100288.91;;;20.36;65.82
4085;BME280;2057;50.858;6.572;2023-07-20T09:38:14;100288.16;;;20.59;65.42
4085;BME280;2057;50.858;6.572;2023-07-20T09:40:41;100283.13;;;20.76;63.69
4085;BME280;2057;50.858;6.572;2023-07-20T09:43:10;100287.53;;;21.15;64.15
4085;BME280;2057;50.858;6.572;2023-07-20T09:45:40;100278.88;;;20.99;64.24
4085;BME280;2057;50.858;6.572;2023-07-20T09:48:07;100276.38;;;21.37;64.66
4085;BME280;2057;50.858;6.572;2023-07-20T09:50:33;100283.19;;;21.13;64.95
4085;BME280;2057;50.858;6.572;2023-07-20T09:53:00;100285.69;;;20.77;65.91
4085;BME280;2057;50.858;6.572;2023-07-20T09:55:27;100285.56;;;20.54;68.00
4085;BME280;2057;50.858;6.572;2023-07-20T09:57:53;100281.25;;;20.50;66.20
4085;BME280;2057;50.858;6.572;2023-07-20T10:00:19;100283.75;;;20.36;67.67
4085;BME280;2057;50.858;6.572;2023-07-20T10:02:48;100282.00;;;20.29;69.58
4085;BME280;2057;50.858;6.572;2023-07-20T10:05:16;100285.44;;;20.28;68.40
4085;BME280;2057;50.858;6.572;2023-07-20T10:07:48;100289.75;;;20.30;66.09
4085;BME280;2057;50.858;6.572;2023-07-20T10:10:15;100280.38;;;20.48;65.60
4085;BME280;2057;50.858;6.572;2023-07-20T10:12:42;100282.22;;;20.77;66.52
4085;BME280;2057;50.858;6.572;2023-07-20T10:15:13;100281.38;;;20.78;67.24
4085;BME280;2057;50.858;6.572;2023-07-20T10:17:53;100286.59;;;20.92;65.85
4085;BME280;2057;50.858;6.572;2023-07-20T10:20:21;100279.56;;;20.61;67.99
4085;BME280;2057;50.858;6.572;2023-07-20T10:22:49;100277.09;;;20.78;67.68
4085;BME280;2057;50.858;6.572;2023-07-20T10:25:16;100276.22;;;20.76;66.47
4085;BME280;2057;50.858;6.572;2023-07-20T10:27:43;100278.88;;;21.07;66.95
4085;BME280;2057;50.858;6.572;2023-07-20T10:30:09;100276.34;;;21.24;65.69
4085;BME280;2057;50.858;6.572;2023-07-20T10:32:34;100266.88;;;21.42;66.05
4085;BME280;2057;50.858;6.572;2023-07-20T10:35:00;100266.00;;;21.21;63.33
4085;BME280;2057;50.858;6.572;2023-07-20T10:37:54;100274.59;;;21.02;62.81
4085;BME280;2057;50.858;6.572;2023-07-20T10:40:40;100265.94;;;20.87;63.61
4085;BME280;2057;50.858;6.572;2023-07-20T10:43:07;100254.81;;;21.11;63.96
4085;BME280;2057;50.858;6.572;2023-07-20T10:45:39;100260.81;;;21.09;64.21
4085;BME280;2057;50.858;6.572;2023-07-20T10:48:25;100259.00;;;20.77;65.69
4085;BME280;2057;50.858;6.572;2023-07-20T10:51:11;100259.88;;;20.77;65.32
4085;BME280;2057;50.858;6.572;2023-07-20T10:53:39;100253.91;;;20.88;64.49
4085;BME280;2057;50.858;6.572;2023-07-20T10:56:11;100253.94;;;21.12;63.35
4085;BME280;2057;50.858;6.572;2023-07-20T10:58:37;100246.19;;;20.97;63.27
4085;BME280;2057;50.858;6.572;2023-07-20T11:01:03;100247.91;;;21.07;62.61
4085;BME280;2057;50.858;6.572;2023-07-20T11:03:35;100252.13;;;20.79;63.52
4085;BME280;2057;50.858;6.572;2023-07-20T11:09:13;100246.25;;;21.40;59.78
4085;BME280;2057;50.858;6.572;2023-07-20T11:11:44;100250.53;;;21.40;60.07
4085;BME280;2057;50.858;6.572;2023-07-20T11:14:21;100247.94;;;21.23;60.24
4085;BME280;2057;50.858;6.572;2023-07-20T11:16:48;100251.38;;;21.19;61.04
4085;BME280;2057;50.858;6.572;2023-07-20T11:19:24;100253.09;;;21.20;60.88
4085;BME280;2057;50.858;6.572;2023-07-20T11:21:54;100251.41;;;21.40;61.29
4085;BME280;2057;50.858;6.572;2023-07-20T11:24:20;100248.84;;;21.70;59.73
4085;BME280;2057;50.858;6.572;2023-07-20T11:26:47;100244.50;;;21.45;59.81
4085;BME280;2057;50.858;6.572;2023-07-20T11:29:15;100241.09;;;21.79;60.10
4085;BME280;2057;50.858;6.572;2023-07-20T11:31:42;100244.47;;;22.11;58.62
4085;BME280;2057;50.858;6.572;2023-07-20T11:34:11;100244.50;;;21.86;58.93
4085;BME280;2057;50.858;6.572;2023-07-20T11:36:38;100239.28;;;22.15;57.78
4085;BME280;2057;50.858;6.572;2023-07-20T11:39:03;100245.25;;;22.48;56.71
4085;BME280;2057;50.858;6.572;2023-07-20T11:41:32;100242.56;;;22.67;55.46
4085;BME280;2057;50.858;6.572;2023-07-20T11:43:58;100237.28;;;22.84;53.85
4085;BME280;2057;50.858;6.572;2023-07-20T11:46:23;100243.47;;;22.53;52.00
4085;BME280;2057;50.858;6.572;2023-07-20T11:48:49;100244.41;;;22.32;55.22
4085;BME280;2057;50.858;6.572;2023-07-20T11:51:17;100238.28;;;22.60;53.86
4085;BME280;2057;50.858;6.572;2023-07-20T11:53:44;100233.94;;;22.62;52.94
4085;BME280;2057;50.858;6.572;2023-07-20T11:56:11;100224.50;;;22.51;54.15
4085;BME280;2057;50.858;6.572;2023-07-20T11:58:41;100229.69;;;22.58;54.60
4085;BME280;2057;50.858;6.572;2023-07-20T12:01:09;100227.13;;;22.42;54.02
4085;BME280;2057;50.858;6.572;2023-07-20T12:03:36;100221.97;;;22.33;54.90
4085;BME280;2057;50.858;6.572;2023-07-20T12:06:08;100227.06;;;22.56;54.73
4085;BME280;2057;50.858;6.572;2023-07-20T12:08:33;100224.59;;;22.27;55.42
4085;BME280;2057;50.858;6.572;2023-07-20T12:10:59;100222.06;;;22.03;55.90
4085;BME280;2057;50.858;6.572;2023-07-20T12:13:44;100217.78;;;21.99;55.97
4085;BME280;2057;50.858;6.572;2023-07-20T12:16:11;100220.31;;;22.15;55.44
4085;BME280;2057;50.858;6.572;2023-07-20T12:18:37;100217.72;;;22.22;55.63
4085;BME280;2057;50.858;6.572;2023-07-20T12:21:02;100221.13;;;22.32;55.53
4085;BME280;2057;50.858;6.572;2023-07-20T12:23:35;100224.53;;;22.39;56.29
4085;BME280;2057;50.858;6.572;2023-07-20T12:26:01;100220.31;;;22.19;54.86
4085;BME280;2057;50.858;6.572;2023-07-20T12:28:27;100216.91;;;22.05;56.36
4085;BME280;2057;50.858;6.572;2023-07-20T12:30:53;100212.59;;;22.01;54.95
4085;BME280;2057;50.858;6.572;2023-07-20T12:33:22;100209.97;;;22.12;53.91
4085;BME280;2057;50.858;6.572;2023-07-20T12:35:48;100214.31;;;22.02;54.96
4085;BME280;2057;50.858;6.572;2023-07-20T12:38:13;100211.78;;;21.74;56.08
4085;BME280;2057;50.858;6.572;2023-07-20T12:40:38;100210.06;;;21.76;56.78
4085;BME280;2057;50.858;6.572;2023-07-20T12:43:05;100208.31;;;21.86;54.90
4085;BME280;2057;50.858;6.572;2023-07-20T12:45:32;100203.19;;;21.70;54.90
4085;BME280;2057;50.858;6.572;2023-07-20T12:47:58;100210.91;;;21.84;55.89
4085;BME280;2057;50.858;6.572;2023-07-20T12:50:23;100198.91;;;21.61;56.41
4085;BME280;2057;50.858;6.572;2023-07-20T12:52:48;100199.72;;;21.68;57.58
4085;BME280;2057;50.858;6.572;2023-07-20T12:55:16;100205.72;;;21.97;56.61
4085;BME280;2057;50.858;6.572;2023-07-20T12:57:41;100205.72;;;21.98;56.75
4085;BME280;2057;50.858;6.572;2023-07-20T13:00:09;100201.38;;;22.03;56.53
4085;BME280;2057;50.858;6.572;2023-07-20T13:02:35;100214.34;;;21.89;55.66
4085;BME280;2057;50.858;6.572;2023-07-20T13:05:02;100206.59;;;21.78;56.04
4085;BME280;2057;50.858;6.572;2023-07-20T13:07:35;100206.56;;;21.97;55.78
4085;BME280;2057;50.858;6.572;2023-07-20T13:10:02;100195.06;;;22.74;54.82
4085;BME280;2057;50.858;6.572;2023-07-20T13:12:30;100199.25;;;22.92;53.36
4085;BME280;2057;50.858;6.572;2023-07-20T13:14:56;100184.38;;;23.25;53.25
4085;BME280;2057;50.858;6.572;2023-07-20T13:17:22;100196.59;;;24.04;52.40
4085;BME280;2057;50.858;6.572;2023-07-20T13:19:48;100187.88;;;23.19;51.42
4085;BME280;2057;50.858;6.572;2023-07-20T13:22:13;100191.50;;;22.89;52.67